sensor_id;sensor_type;location;lat;lon;timestamp;pressure;altitude;pressure_sealevel;temperature;humidity
15932;BME280;8065;49.520;11.284;2023-04-22T00:02:09;96996.25;;;15.99;66.66
15932;BME280;8065;49.520;11.284;2023-04-22T00:04:38;96995.53;;;16.02;66.58
15932;BME280;8065;49.520;11.284;2023-04-22T00:07:05;96991.56;;;15.93;66.71
15932;BME280;8065;49.520;11.284;2023-04-22T00:09:32;96991.47;;;15.86;67.00
15932;BME280;8065;49.520;11.284;2023-04-22T00:11:59;96986.50;;;15.84;66.93
15932;BME280;8065;49.520;11.284;2023-04-22T00:14:26;96985.34;;;15.85;66.93
15932;BME280;8065;49.520;11.284;2023-04-22T00:16:53;96985.00;;;15.87;66.68
15932;BME280;8065;49.520;11.284;2023-04-22T00:19:20;96986.13;;;15.86;66.67
15932;BME280;8065;49.520;11.284;2023-04-22T00:21:47;96989.94;;;15.85;66.53
15932;BME280;8065;49.520;11.284;2023-04-22T00:24:14;96992.56;;;15.81;66.42
15932;BME280;8065;49.520;11.284;2023-04-22T00:26:40;96989.84;;;15.78;66.56
15932;BME280;8065;49.520;11.284;2023-04-22T00:29:07;96991.34;;;15.75;66.71
15932;BME280;8065;49.520;11.284;2023-04-22T00:31:33;96984.84;;;15.76;66.41
15932;BME280;8065;49.520;11.284;2023-04-22T00:34:00;96986.75;;;15.76;66.31
15932;BME280;8065;49.520;11.284;2023-04-22T00:36:28;96989.06;;;15.77;66.81
15932;BME280;8065;49.520;11.284;2023-04-22T00:38:55;96984.44;;;15.74;66.96
15932;BME280;8065;49.520;11.284;2023-04-22T00:41:22;96988.31;;;15.77;66.86
15932;BME280;8065;49.520;11.284;2023-04-22T00:43:50;96989.03;;;15.73;66.86
15932;BME280;8065;49.520;11.284;2023-04-22T00:46:18;96984.81;;;15.72;67.14
15932;BME280;8065;49.520;11.284;2023-04-22T00:48:45;96972.91;;;15.70;66.78
15932;BME280;8065;49.520;11.284;2023-04-22T00:51:11;96979.09;;;15.74;66.67
15932;BME280;8065;49.520;11.284;2023-04-22T00:53:39;96972.09;;;15.66;67.29
15932;BME280;8065;49.520;11.284;2023-04-22T00:56:06;96984.28;;;15.60;67.16
15932;BME280;8065;49.520;11.284;2023-04-22T00:58:33;96973.19;;;15.61;67.12
15932;BME280;8065;49.520;11.284;2023-04-22T01:01:00;96978.94;;;15.60;67.38
15932;BME280;8065;49.520;11.284;2023-04-22T01:03:26;96980.34;;;15.54;67.19
15932;BME280;8065;49.520;11.284;2023-04-22T01:05:55;96984.56;;;15.55;67.13
15932;BME280;8065;49.520;11.284;2023-04-22T01:08:23;96977.25;;;15.52;67.37
15932;BME280;8065;49.520;11.284;2023-04-22T01:10:54;96978.59;;;15.38;67.42
15932;BME280;8065;49.520;11.284;2023-04-22T01:13:21;96990.03;;;15.35;67.53
15932;BME280;8065;49.520;11.284;2023-04-22T01:15:48;96984.69;;;15.35;68.30
15932;BME280;8065;49.520;11.284;2023-04-22T01:18:15;96993.78;;;15.31;67.99
15932;BME280;8065;49.520;11.284;2023-04-22T01:20:42;96996.06;;;15.29;68.60
15932;BME280;8065;49.520;11.284;2023-04-22T01:23:14;96994.44;;;15.24;68.76
15932;BME280;8065;49.520;11.284;2023-04-22T01:25:42;96987.56;;;15.23;68.48
15932;BME280;8065;49.520;11.284;2023-04-22T01:28:09;96994.34;;;15.17;68.58
15932;BME280;8065;49.520;11.284;2023-04-22T01:30:36;96983.63;;;15.17;68.24
15932;BME280;8065;49.520;11.284;2023-04-22T01:33:03;96988.06;;;15.06;68.85
15932;BME280;8065;49.520;11.284;2023-04-22T01:35:30;96982.47;;;14.92;68.86
15932;BME280;8065;49.520;11.284;2023-04-22T01:38:01;96996.91;;;14.87;69.48
15932;BME280;8065;49.520;11.284;2023-04-22T01:40:30;96986.88;;;14.81;69.22
15932;BME280;8065;49.520;11.284;2023-04-22T01:42:57;96987.66;;;14.81;69.59
15932;BME280;8065;49.520;11.284;2023-04-22T01:45:24;96978.38;;;14.75;69.67
15932;BME280;8065;49.520;11.284;2023-04-22T01:47:51;96980.69;;;14.76;69.51
15932;BME280;8065;49.520;11.284;2023-04-22T01:50:17;96988.41;;;14.82;69.08
15932;BME280;8065;49.520;11.284;2023-04-22T01:52:44;96983.06;;;14.82;69.15
15932;BME280;8065;49.520;11.284;2023-04-22T01:55:10;96989.53;;;14.81;69.68
15932;BME280;8065;49.520;11.284;2023-04-22T01:57:38;96983.06;;;14.82;69.40
15932;BME280;8065;49.520;11.284;2023-04-22T02:00:06;96990.38;;;14.85;69.51
15932;BME280;8065;49.520;11.284;2023-04-22T02:02:33;96995.00;;;14.88;68.95
15932;BME280;8065;49.520;11.284;2023-04-22T02:05:00;96993.81;;;14.85;68.73
15932;BME280;8065;49.520;11.284;2023-04-22T02:07:26;96991.50;;;14.84;68.79
15932;BME280;8065;49.520;11.284;2023-04-22T02:09:53;96998.41;;;14.85;68.38
15932;BME280;8065;49.520;11.284;2023-04-22T02:12:19;96988.84;;;14.84;69.00
15932;BME280;8065;49.520;11.284;2023-04-22T02:14:47;96993.75;;;14.82;68.31
15932;BME280;8065;49.520;11.284;2023-04-22T02:17:14;96991.50;;;14.84;68.85
15932;BME280;8065;49.520;11.284;2023-04-22T02:19:42;96988.28;;;14.74;68.87
15932;BME280;8065;49.520;11.284;2023-04-22T02:22:08;96994.91;;;14.81;68.75
15932;BME280;8065;49.520;11.284;2023-04-22T02:24:35;96996.03;;;14.80;68.67
15932;BME280;8065;49.520;11.284;2023-04-22T02:27:01;96995.88;;;14.69;69.07
15932;BME280;8065;49.520;11.284;2023-04-22T02:29:28;96992.06;;;14.70;68.77
15932;BME280;8065;49.520;11.284;2023-04-22T02:31:57;96994.03;;;14.73;68.86
15932;BME280;8065;49.520;11.284;2023-04-22T02:34:24;96993.63;;;14.71;68.77
15932;BME280;8065;49.520;11.284;2023-04-22T02:36:51;96988.28;;;14.74;68.41
15932;BME280;8065;49.520;11.284;2023-04-22T02:39:17;96987.72;;;14.62;68.85
15932;BME280;8065;49.520;11.284;2023-04-22T02:41:44;96985.88;;;14.66;68.94
15932;BME280;8065;49.520;11.284;2023-04-22T02:44:10;96986.25;;;14.64;69.11
15932;BME280;8065;49.520;11.284;2023-04-22T02:46:37;96995.81;;;14.65;68.83
15932;BME280;8065;49.520;11.284;2023-04-22T02:49:04;96995.50;;;14.70;68.41
15932;BME280;8065;49.520;11.284;2023-04-22T02:51:31;96990.47;;;14.65;68.72
15932;BME280;8065;49.520;11.284;2023-04-22T02:53:58;96996.50;;;14.62;68.44
15932;BME280;8065;49.520;11.284;2023-04-22T02:56:25;96996.44;;;14.59;69.08
15932;BME280;8065;49.520;11.284;2023-04-22T02:58:51;96998.78;;;14.60;68.65
15932;BME280;8065;49.520;11.284;2023-04-22T03:01:18;96996.38;;;14.55;68.32
15932;BME280;8065;49.520;11.284;2023-04-22T03:03:45;97004.84;;;14.57;68.88
15932;BME280;8065;49.520;11.284;2023-04-22T03:06:12;96994.13;;;14.57;68.64
15932;BME280;8065;49.520;11.284;2023-04-22T03:08:39;96996.25;;;14.48;69.07
15932;BME280;8065;49.520;11.284;2023-04-22T03:11:06;96995.13;;;14.49;68.89
15932;BME280;8065;49.520;11.284;2023-04-22T03:13:32;97005.41;;;14.47;68.86
15932;BME280;8065;49.520;11.284;2023-04-22T03:15:59;96998.50;;;14.46;68.66
15932;BME280;8065;49.520;11.284;2023-04-22T03:18:25;97000.34;;;14.42;68.99
15932;BME280;8065;49.520;11.284;2023-04-22T03:20:52;97004.91;;;14.41;69.62
15932;BME280;8065;49.520;11.284;2023-04-22T03:23:20;97000.34;;;14.42;68.87
15932;BME280;8065;49.520;11.284;2023-04-22T03:25:46;97001.72;;;14.36;69.30
15932;BME280;8065;49.520;11.284;2023-04-22T03:28:13;96999.06;;;14.36;69.32
15932;BME280;8065;49.520;11.284;2023-04-22T03:30:39;96995.69;;;14.39;68.86
15932;BME280;8065;49.520;11.284;2023-04-22T03:33:06;96997.50;;;14.35;69.16
15932;BME280;8065;49.520;11.284;2023-04-22T03:35:32;97005.19;;;14.36;69.10
15932;BME280;8065;49.520;11.284;2023-04-22T03:37:59;97003.16;;;14.30;68.88
15932;BME280;8065;49.520;11.284;2023-04-22T03:40:27;96998.63;;;14.34;68.65
15932;BME280;8065;49.520;11.284;2023-04-22T03:42:53;96995.13;;;14.30;68.82
15932;BME280;8065;49.520;11.284;2023-04-22T03:45:20;97001.03;;;14.20;68.85
15932;BME280;8065;49.520;11.284;2023-04-22T03:47:46;97001.88;;;14.24;69.08
15932;BME280;8065;49.520;11.284;2023-04-22T03:50:13;97001.13;;;14.23;69.06
15932;BME280;8065;49.520;11.284;2023-04-22T03:52:39;97009.63;;;14.09;69.63
15932;BME280;8065;49.520;11.284;2023-04-22T03:55:06;96997.38;;;14.08;69.54
15932;BME280;8065;49.520;11.284;2023-04-22T03:57:35;96997.75;;;14.07;69.89
15932;BME280;8065;49.520;11.284;2023-04-22T04:00:01;97005.63;;;14.00;69.64
15932;BME280;8065;49.520;11.284;2023-04-22T04:02:28;97011.31;;;13.98;70.16
15932;BME280;8065;49.520;11.284;2023-04-22T04:04:54;97009.06;;;14.00;70.36
15932;BME280;8065;49.520;11.284;2023-04-22T04:07:21;97004.41;;;13.97;70.45
15932;BME280;8065;49.520;11.284;2023-04-22T04:09:47;97004.69;;;13.92;70.71
15932;BME280;8065;49.520;11.284;2023-04-22T04:12:14;97003.91;;;13.92;70.25
15932;BME280;8065;49.520;11.284;2023-04-22T04:14:42;97002.59;;;13.82;70.54
15932;BME280;8065;49.520;11.284;2023-04-22T04:17:08;96998.81;;;13.83;70.65
15932;BME280;8065;49.520;11.284;2023-04-22T04:19:38;96999.22;;;13.85;70.05
15932;BME280;8065;49.520;11.284;2023-04-22T04:22:04;97000.31;;;13.65;70.91
15932;BME280;8065;49.520;11.284;2023-04-22T04:24:31;96999.78;;;13.75;70.84
15932;BME280;8065;49.520;11.284;2023-04-22T04:27:00;97002.44;;;13.75;70.36
15932;BME280;8065;49.520;11.284;2023-04-22T04:29:27;96999.63;;;13.68;70.72
15932;BME280;8065;49.520;11.284;2023-04-22T04:31:55;96999.81;;;13.59;70.65
15932;BME280;8065;49.520;11.284;2023-04-22T04:34:21;97007.56;;;13.64;71.08
15932;BME280;8065;49.520;11.284;2023-04-22T04:36:48;97002.84;;;13.58;71.55
15932;BME280;8065;49.520;11.284;2023-04-22T04:39:14;97006.97;;;13.55;71.75
15932;BME280;8065;49.520;11.284;2023-04-22T04:41:43;97005.50;;;13.58;71.49
15932;BME280;8065;49.520;11.284;2023-04-22T04:44:10;97001.78;;;13.62;71.72
15932;BME280;8065;49.520;11.284;2023-04-22T04:46:36;96998.28;;;13.58;71.57
15932;BME280;8065;49.520;11.284;2023-04-22T04:49:06;96999.06;;;13.59;71.52
15932;BME280;8065;49.520;11.284;2023-04-22T04:51:33;97000.75;;;13.67;71.29
15932;BME280;8065;49.520;11.284;2023-04-22T04:54:00;97000.69;;;13.63;71.89
15932;BME280;8065;49.520;11.284;2023-04-22T04:56:26;96992.31;;;13.65;71.67
15932;BME280;8065;49.520;11.284;2023-04-22T04:58:53;96994.63;;;13.66;71.57
15932;BME280;8065;49.520;11.284;2023-04-22T05:01:20;96995.69;;;13.62;71.89
15932;BME280;8065;49.520;11.284;2023-04-22T05:03:47;97004.31;;;13.55;71.92
15932;BME280;8065;49.520;11.284;2023-04-22T05:06:14;97001.09;;;13.65;71.71
15932;BME280;8065;49.520;11.284;2023-04-22T05:08:41;97001.34;;;13.76;70.99
15932;BME280;8065;49.520;11.284;2023-04-22T05:11:07;97011.31;;;13.79;71.19
15932;BME280;8065;49.520;11.284;2023-04-22T05:13:34;97005.63;;;13.81;71.23
15932;BME280;8065;49.520;11.284;2023-04-22T05:16:00;97009.34;;;13.76;71.88
15932;BME280;8065;49.520;11.284;2023-04-22T05:18:27;97010.13;;;13.76;71.63
15932;BME280;8065;49.520;11.284;2023-04-22T05:20:53;97008.78;;;13.86;71.59
15932;BME280;8065;49.520;11.284;2023-04-22T05:23:24;97021.13;;;13.94;71.24
15932;BME280;8065;49.520;11.284;2023-04-22T05:25:51;97014.31;;;13.97;71.03
15932;BME280;8065;49.520;11.284;2023-04-22T05:28:17;97022.69;;;13.95;70.74
15932;BME280;8065;49.520;11.284;2023-04-22T05:30:44;97024.16;;;13.93;70.78
15932;BME280;8065;49.520;11.284;2023-04-22T05:33:10;97016.88;;;14.09;70.09
15932;BME280;8065;49.520;11.284;2023-04-22T05:35:37;97018.47;;;14.14;70.22
15932;BME280;8065;49.520;11.284;2023-04-22T05:38:03;97022.34;;;14.16;69.85
15932;BME280;8065;49.520;11.284;2023-04-22T05:40:31;97016.78;;;14.25;69.71
15932;BME280;8065;49.520;11.284;2023-04-22T05:42:58;97018.63;;;14.21;70.17
15932;BME280;8065;49.520;11.284;2023-04-22T05:45:25;97017.50;;;14.41;69.53
15932;BME280;8065;49.520;11.284;2023-04-22T05:47:51;97022.28;;;14.51;69.37
15932;BME280;8065;49.520;11.284;2023-04-22T05:50:18;97020.09;;;14.57;69.05
15932;BME280;8065;49.520;11.284;2023-04-22T05:52:44;97026.94;;;14.54;69.14
15932;BME280;8065;49.520;11.284;2023-04-22T05:55:11;97029.44;;;14.66;68.74
15932;BME280;8065;49.520;11.284;2023-04-22T05:57:38;97020.09;;;14.80;69.08
15932;BME280;8065;49.520;11.284;2023-04-22T06:00:06;97016.00;;;14.86;68.79
15932;BME280;8065;49.520;11.284;2023-04-22T06:02:33;97022.97;;;14.90;68.53
15932;BME280;8065;49.520;11.284;2023-04-22T06:05:00;97018.38;;;14.91;68.31
15932;BME280;8065;49.520;11.284;2023-04-22T06:07:26;97023.19;;;15.04;67.57
15932;BME280;8065;49.520;11.284;2023-04-22T06:09:53;97021.66;;;15.03;67.78
15932;BME280;8065;49.520;11.284;2023-04-22T06:12:19;97022.06;;;14.83;68.25
15932;BME280;8065;49.520;11.284;2023-04-22T06:14:47;97021.94;;;15.21;67.01
15932;BME280;8065;49.520;11.284;2023-04-22T06:17:14;97030.19;;;15.35;67.25
15932;BME280;8065;49.520;11.284;2023-04-22T06:19:40;97031.84;;;15.44;66.40
15932;BME280;8065;49.520;11.284;2023-04-22T06:22:07;97029.47;;;15.65;65.93
15932;BME280;8065;49.520;11.284;2023-04-22T06:24:33;97032.66;;;15.74;66.02
15932;BME280;8065;49.520;11.284;2023-04-22T06:27:00;97031.31;;;15.87;65.58
15932;BME280;8065;49.520;11.284;2023-04-22T06:29:27;97034.50;;;15.96;64.74
15932;BME280;8065;49.520;11.284;2023-04-22T06:31:55;97037.81;;;15.86;64.11
15932;BME280;8065;49.520;11.284;2023-04-22T06:34:21;97030.69;;;15.97;63.97
15932;BME280;8065;49.520;11.284;2023-04-22T06:36:48;97039.34;;;16.17;63.87
15932;BME280;8065;49.520;11.284;2023-04-22T06:39:15;97030.66;;;16.27;62.78
15932;BME280;8065;49.520;11.284;2023-04-22T06:41:42;97028.13;;;16.38;62.58
15932;BME280;8065;49.520;11.284;2023-04-22T06:44:08;97033.22;;;16.17;62.85
15932;BME280;8065;49.520;11.284;2023-04-22T06:46:35;97035.78;;;16.39;62.91
15932;BME280;8065;49.520;11.284;2023-04-22T06:49:03;97037.50;;;16.58;62.29
15932;BME280;8065;49.520;11.284;2023-04-22T06:51:30;97033.78;;;16.66;62.37
15932;BME280;8065;49.520;11.284;2023-04-22T06:53:57;97027.81;;;16.84;61.92
15932;BME280;8065;49.520;11.284;2023-04-22T06:56:23;97027.34;;;16.75;61.66
15932;BME280;8065;49.520;11.284;2023-04-22T06:58:50;97028.16;;;16.79;62.29
15932;BME280;8065;49.520;11.284;2023-04-22T07:01:16;97022.94;;;16.93;62.28
15932;BME280;8065;49.520;11.284;2023-04-22T07:03:43;97024.16;;;17.02;61.33
15932;BME280;8065;49.520;11.284;2023-04-22T07:06:11;97023.44;;;17.09;61.12
15932;BME280;8065;49.520;11.284;2023-04-22T07:08:37;97018.53;;;17.18;61.04
15932;BME280;8065;49.520;11.284;2023-04-22T07:11:07;97018.88;;;17.13;61.53
15932;BME280;8065;49.520;11.284;2023-04-22T07:13:34;97022.09;;;17.36;60.83
15932;BME280;8065;49.520;11.284;2023-04-22T07:16:00;97020.25;;;17.48;61.05
15932;BME280;8065;49.520;11.284;2023-04-22T07:18:27;97018.41;;;17.55;60.96
15932;BME280;8065;49.520;11.284;2023-04-22T07:20:54;97013.22;;;17.84;60.27
15932;BME280;8065;49.520;11.284;2023-04-22T07:23:21;97009.84;;;17.97;60.37
15932;BME280;8065;49.520;11.284;2023-04-22T07:25:48;97014.03;;;17.95;60.12
15932;BME280;8065;49.520;11.284;2023-04-22T07:28:15;97009.53;;;18.24;59.30
15932;BME280;8065;49.520;11.284;2023-04-22T07:30:41;97006.50;;;18.36;59.54
15932;BME280;8065;49.520;11.284;2023-04-22T07:33:08;96995.44;;;18.62;59.39
15932;BME280;8065;49.520;11.284;2023-04-22T07:35:35;97000.09;;;18.80;58.67
15932;BME280;8065;49.520;11.284;2023-04-22T07:38:01;96993.94;;;18.97;58.86
15932;BME280;8065;49.520;11.284;2023-04-22T07:40:29;96987.78;;;19.00;57.76
15932;BME280;8065;49.520;11.284;2023-04-22T07:42:56;96988.94;;;18.95;57.10
15932;BME280;8065;49.520;11.284;2023-04-22T07:45:22;96992.00;;;19.37;56.45
15932;BME280;8065;49.520;11.284;2023-04-22T07:47:49;96992.00;;;19.22;56.38
15932;BME280;8065;49.520;11.284;2023-04-22T07:50:15;96992.75;;;19.30;56.69
15932;BME280;8065;49.520;11.284;2023-04-22T07:52:42;96991.22;;;19.25;56.65
15932;BME280;8065;49.520;11.284;2023-04-22T07:55:08;96994.28;;;19.42;55.13
15932;BME280;8065;49.520;11.284;2023-04-22T07:57:36;96998.16;;;19.55;56.02
15932;BME280;8065;49.520;11.284;2023-04-22T08:00:05;96996.59;;;19.40;55.84
15932;BME280;8065;49.520;11.284;2023-04-22T08:02:32;96992.75;;;19.48;54.87
15932;BME280;8065;49.520;11.284;2023-04-22T08:04:58;96995.06;;;19.53;54.52
15932;BME280;8065;49.520;11.284;2023-04-22T08:07:25;96994.69;;;19.58;55.16
15932;BME280;8065;49.520;11.284;2023-04-22T08:09:51;96989.59;;;19.85;54.59
15932;BME280;8065;49.520;11.284;2023-04-22T08:12:20;96991.22;;;19.61;54.02
15932;BME280;8065;49.520;11.284;2023-04-22T08:14:48;96998.09;;;19.76;54.26
15932;BME280;8065;49.520;11.284;2023-04-22T08:17:15;96996.44;;;20.04;53.50
15932;BME280;8065;49.520;11.284;2023-04-22T08:19:46;97002.59;;;20.08;53.67
15932;BME280;8065;49.520;11.284;2023-04-22T08:22:12;96997.94;;;20.15;53.44
15932;BME280;8065;49.520;11.284;2023-04-22T08:24:39;96998.28;;;20.28;52.61
15932;BME280;8065;49.520;11.284;2023-04-22T08:27:06;96997.75;;;20.61;53.93
15932;BME280;8065;49.520;11.284;2023-04-22T08:29:32;96978.13;;;20.54;52.75
15932;BME280;8065;49.520;11.284;2023-04-22T08:32:00;96982.63;;;20.75;51.77
15932;BME280;8065;49.520;11.284;2023-04-22T08:34:27;96986.88;;;20.72;51.49
15932;BME280;8065;49.520;11.284;2023-04-22T08:36:53;96982.34;;;21.07;52.04
15932;BME280;8065;49.520;11.284;2023-04-22T08:39:20;96985.13;;;20.96;51.48
15932;BME280;8065;49.520;11.284;2023-04-22T08:41:48;96981.88;;;21.22;51.51
15932;BME280;8065;49.520;11.284;2023-04-22T08:44:15;96986.00;;;21.34;51.17
15932;BME280;8065;49.520;11.284;2023-04-22T08:46:43;96988.25;;;21.43;50.95
15932;BME280;8065;49.520;11.284;2023-04-22T08:49:12;96990.69;;;21.68;50.48
15932;BME280;8065;49.520;11.284;2023-04-22T08:51:41;96992.69;;;21.19;50.59
15932;BME280;8065;49.520;11.284;2023-04-22T08:54:07;96982.53;;;21.34;51.29
15932;BME280;8065;49.520;11.284;2023-04-22T08:56:35;96993.19;;;21.85;50.75
15932;BME280;8065;49.520;11.284;2023-04-22T08:59:02;96987.56;;;21.69;50.14
15932;BME280;8065;49.520;11.284;2023-04-22T09:01:30;96984.59;;;21.60;50.29
15932;BME280;8065;49.520;11.284;2023-04-22T09:03:58;96981.53;;;21.92;50.77
15932;BME280;8065;49.520;11.284;2023-04-22T09:06:26;96976.75;;;22.37;50.20
15932;BME280;8065;49.520;11.284;2023-04-22T09:08:53;96975.66;;;22.58;49.70
15932;BME280;8065;49.520;11.284;2023-04-22T09:11:19;96976.31;;;22.66;49.95
15932;BME280;8065;49.520;11.284;2023-04-22T09:13:46;96967.22;;;23.06;49.11
15932;BME280;8065;49.520;11.284;2023-04-22T09:16:12;96971.50;;;22.77;47.29
15932;BME280;8065;49.520;11.284;2023-04-22T09:18:40;96971.22;;;22.98;48.79
15932;BME280;8065;49.520;11.284;2023-04-22T09:21:07;96968.41;;;23.05;48.05
15932;BME280;8065;49.520;11.284;2023-04-22T09:23:43;96954.78;;;23.32;47.75
15932;BME280;8065;49.520;11.284;2023-04-22T09:26:10;96964.63;;;23.23;47.81
15932;BME280;8065;49.520;11.284;2023-04-22T09:28:37;96957.59;;;23.25;47.34
15932;BME280;8065;49.520;11.284;2023-04-22T09:31:03;96948.72;;;23.25;48.08
15932;BME280;8065;49.520;11.284;2023-04-22T09:33:30;96950.78;;;23.60;46.87
15932;BME280;8065;49.520;11.284;2023-04-22T09:35:57;96945.28;;;23.83;47.31
15932;BME280;8065;49.520;11.284;2023-04-22T09:38:29;96945.47;;;24.32;47.34
15932;BME280;8065;49.520;11.284;2023-04-22T09:40:58;96942.31;;;23.98;46.36
15932;BME280;8065;49.520;11.284;2023-04-22T09:43:24;96944.63;;;24.35;47.26
15932;BME280;8065;49.520;11.284;2023-04-22T09:45:51;96944.09;;;23.65;47.02
15932;BME280;8065;49.520;11.284;2023-04-22T09:48:18;96939.56;;;24.54;46.82
15932;BME280;8065;49.520;11.284;2023-04-22T09:50:46;96940.41;;;24.83;45.64
15932;BME280;8065;49.520;11.284;2023-04-22T09:53:14;96932.25;;;24.67;46.44
15932;BME280;8065;49.520;11.284;2023-04-22T09:55:43;96943.00;;;25.06;45.02
15932;BME280;8065;49.520;11.284;2023-04-22T09:58:13;96939.94;;;25.33;45.28
15932;BME280;8065;49.520;11.284;2023-04-22T10:00:42;96929.28;;;25.55;44.71
15932;BME280;8065;49.520;11.284;2023-04-22T10:03:08;96929.66;;;25.12;45.48
15932;BME280;8065;49.520;11.284;2023-04-22T10:05:36;96930.50;;;25.38;45.30
15932;BME280;8065;49.520;11.284;2023-04-22T10:08:03;96919.22;;;25.23;44.89
15932;BME280;8065;49.520;11.284;2023-04-22T10:10:30;96923.75;;;24.65;45.19
15932;BME280;8065;49.520;11.284;2023-04-22T10:12:57;96912.22;;;25.38;44.42
15932;BME280;8065;49.520;11.284;2023-04-22T10:15:25;96916.66;;;25.61;44.63
15932;BME280;8065;49.520;11.284;2023-04-22T10:17:53;96911.22;;;25.61;44.50
15932;BME280;8065;49.520;11.284;2023-04-22T10:20:20;96906.28;;;25.72;44.25
15932;BME280;8065;49.520;11.284;2023-04-22T10:22:47;96917.44;;;25.33;42.76
15932;BME280;8065;49.520;11.284;2023-04-22T10:25:20;96911.13;;;25.36;42.66
15932;BME280;8065;49.520;11.284;2023-04-22T10:27:52;96918.00;;;25.11;44.46
15932;BME280;8065;49.520;11.284;2023-04-22T10:30:27;96917.59;;;24.97;42.78
15932;BME280;8065;49.520;11.284;2023-04-22T10:32:53;96915.97;;;24.99;43.23
15932;BME280;8065;49.520;11.284;2023-04-22T10:35:25;96915.63;;;24.81;44.13
15932;BME280;8065;49.520;11.284;2023-04-22T10:37:52;96916.00;;;25.28;43.82
15932;BME280;8065;49.520;11.284;2023-04-22T10:40:19;96916.19;;;25.50;43.22
15932;BME280;8065;49.520;11.284;2023-04-22T10:42:49;96910.47;;;25.32;42.46
15932;BME280;8065;49.520;11.284;2023-04-22T10:45:16;96908.84;;;25.63;41.37
15932;BME280;8065;49.520;11.284;2023-04-22T10:47:44;96913.75;;;25.97;41.39
15932;BME280;8065;49.520;11.284;2023-04-22T10:50:22;96912.97;;;25.97;41.42
15932;BME280;8065;49.520;11.284;2023-04-22T10:52:53;96901.38;;;25.67;42.91
15932;BME280;8065;49.520;11.284;2023-04-22T10:55:21;96900.22;;;26.06;42.66
15932;BME280;8065;49.520;11.284;2023-04-22T10:57:48;96892.38;;;26.08;40.45
15932;BME280;8065;49.520;11.284;2023-04-22T11:03:11;96887.81;;;26.69;39.41
15932;BME280;8065;49.520;11.284;2023-04-22T11:05:39;96888.97;;;25.79;39.88
15932;BME280;8065;49.520;11.284;2023-04-22T11:08:10;96884.91;;;26.38;39.71
15932;BME280;8065;49.520;11.284;2023-04-22T11:10:39;96890.66;;;26.53;39.90
15932;BME280;8065;49.520;11.284;2023-04-22T11:13:08;96892.59;;;26.14;39.29
15932;BME280;8065;49.520;11.284;2023-04-22T11:15:37;96886.38;;;26.13;40.53
15932;BME280;8065;49.520;11.284;2023-04-22T11:18:08;96886.06;;;26.24;38.91
15932;BME280;8065;49.520;11.284;2023-04-22T11:20:37;96880.28;;;25.84;39.11
15932;BME280;8065;49.520;11.284;2023-04-22T11:23:03;96882.78;;;26.29;39.15
15932;BME280;8065;49.520;11.284;2023-04-22T11:25:30;96881.44;;;25.70;38.96
15932;BME280;8065;49.520;11.284;2023-04-22T11:27:57;96880.53;;;25.32;39.67
15932;BME280;8065;49.520;11.284;2023-04-22T11:30:26;96884.50;;;25.72;39.65
15932;BME280;8065;49.520;11.284;2023-04-22T11:32:54;96871.88;;;26.04;39.32
15932;BME280;8065;49.520;11.284;2023-04-22T11:35:26;96877.03;;;26.27;38.82
15932;BME280;8065;49.520;11.284;2023-04-22T11:37:55;96873.09;;;26.28;38.89
15932;BME280;8065;49.520;11.284;2023-04-22T11:40:25;96874.44;;;26.36;38.50
15932;BME280;8065;49.520;11.284;2023-04-22T11:42:52;96869.84;;;25.95;38.92
15932;BME280;8065;49.520;11.284;2023-04-22T11:45:19;96875.06;;;25.90;38.61
15932;BME280;8065;49.520;11.284;2023-04-22T11:47:47;96868.22;;;25.56;39.92
15932;BME280;8065;49.520;11.284;2023-04-22T11:50:15;96869.47;;;25.39;40.08
15932;BME280;8065;49.520;11.284;2023-04-22T11:52:50;96870.50;;;25.29;40.08
15932;BME280;8065;49.520;11.284;2023-04-22T11:55:20;96867.22;;;26.30;39.93
15932;BME280;8065;49.520;11.284;2023-04-22T11:57:53;96856.13;;;25.99;39.38
15932;BME280;8065;49.520;11.284;2023-04-22T12:00:20;96859.72;;;25.96;40.18
15932;BME280;8065;49.520;11.284;2023-04-22T12:02:58;96859.28;;;26.35;39.51
15932;BME280;8065;49.520;11.284;2023-04-22T12:05:32;96862.31;;;26.50;38.25
15932;BME280;8065;49.520;11.284;2023-04-22T12:08:00;96860.56;;;26.69;37.81
15932;BME280;8065;49.520;11.284;2023-04-22T12:10:29;96851.19;;;26.19;38.35
15932;BME280;8065;49.520;11.284;2023-04-22T12:12:55;96843.88;;;26.29;37.75
15932;BME280;8065;49.520;11.284;2023-04-22T12:15:22;96845.41;;;26.55;38.41
15932;BME280;8065;49.520;11.284;2023-04-22T12:17:49;96834.72;;;26.95;38.87
15932;BME280;8065;49.520;11.284;2023-04-22T12:20:15;96843.47;;;26.90;36.86
15932;BME280;8065;49.520;11.284;2023-04-22T12:22:42;96838.50;;;26.76;37.85
15932;BME280;8065;49.520;11.284;2023-04-22T12:25:08;96842.19;;;25.55;38.87
15932;BME280;8065;49.520;11.284;2023-04-22T12:27:36;96823.91;;;26.70;38.02
15932;BME280;8065;49.520;11.284;2023-04-22T12:30:03;96835.13;;;26.72;37.86
15932;BME280;8065;49.520;11.284;2023-04-22T12:32:30;96832.09;;;27.04;37.87
15932;BME280;8065;49.520;11.284;2023-04-22T12:34:57;96815.94;;;27.32;37.90
15932;BME280;8065;49.520;11.284;2023-04-22T12:37:23;96823.34;;;26.75;37.40
15932;BME280;8065;49.520;11.284;2023-04-22T12:39:51;96825.25;;;26.87;37.13
15932;BME280;8065;49.520;11.284;2023-04-22T12:42:17;96814.31;;;27.00;36.59
15932;BME280;8065;49.520;11.284;2023-04-22T12:44:45;96816.94;;;26.69;37.17
15932;BME280;8065;49.520;11.284;2023-04-22T12:47:12;96813.94;;;27.10;36.53
15932;BME280;8065;49.520;11.284;2023-04-22T12:49:38;96823.84;;;27.17;37.20
15932;BME280;8065;49.520;11.284;2023-04-22T12:52:05;96820.50;;;26.78;36.75
15932;BME280;8065;49.520;11.284;2023-04-22T12:54:33;96818.50;;;26.44;37.83
15932;BME280;8065;49.520;11.284;2023-04-22T12:56:59;96817.00;;;26.78;38.96
15932;BME280;8065;49.520;11.284;2023-04-22T12:59:26;96804.81;;;27.04;38.55
15932;BME280;8065;49.520;11.284;2023-04-22T13:01:54;96806.47;;;26.89;38.09
15932;BME280;8065;49.520;11.284;2023-04-22T13:04:21;96798.47;;;27.29;38.10